createdAt,value
2023-05-23T00:02:31.649Z,9.50
2023-05-23T00:05:03.722Z,14.10
2023-05-23T00:07:35.683Z,10.20
2023-05-23T00:10:08.624Z,9.10
2023-05-23T00:12:42.851Z,10.10
2023-05-23T00:15:15.014Z,14.20
2023-05-23T00:17:47.072Z,17.70
2023-05-23T00:20:19.209Z,10.20
2023-05-23T00:22:51.219Z,15.00
2023-05-23T00:25:23.338Z,13.30
2023-05-23T00:27:55.559Z,9.20
2023-05-23T00:30:27.598Z,14.00
2023-05-23T00:33:00.594Z,13.30
2023-05-23T00:35:32.583Z,11.50
2023-05-23T00:38:04.632Z,10.80
2023-05-23T00:40:36.657Z,15.10
2023-05-23T00:43:08.937Z,12.70
2023-05-23T00:45:41.234Z,16.80
2023-05-23T00:48:13.504Z,12.10
2023-05-23T00:50:45.946Z,16.90
2023-05-23T00:53:18.215Z,17.80
2023-05-23T00:55:50.744Z,12.20
2023-05-23T00:58:22.857Z,11.30
2023-05-23T01:00:55.981Z,15.10
2023-05-23T01:03:28.932Z,13.40
2023-05-23T01:06:01.037Z,16.20
2023-05-23T01:08:33.223Z,19.50
2023-05-23T01:11:08.368Z,15.90
2023-05-23T01:13:43.378Z,12.80
2023-05-23T01:16:19.582Z,14.20
2023-05-23T01:18:58.091Z,11.70
2023-05-23T01:21:30.359Z,17.40
2023-05-23T01:24:18.989Z,26.50
2023-05-23T01:27:05.369Z,16.20
2023-05-23T01:29:38.682Z,20.20
2023-05-23T01:32:13.644Z,16.90
2023-05-23T01:34:45.840Z,18.70
2023-05-23T01:37:19.886Z,25.00
2023-05-23T01:39:52.065Z,20.30
2023-05-23T01:42:24.022Z,15.30
2023-05-23T01:44:59.474Z,15.80
2023-05-23T01:47:32.174Z,17.10
2023-05-23T01:50:04.464Z,17.50
2023-05-23T01:52:36.667Z,12.30
2023-05-23T01:55:09.999Z,15.70
2023-05-23T01:57:42.777Z,12.90
2023-05-23T02:00:15.881Z,12.70
2023-05-23T02:02:48.377Z,13.40
2023-05-23T02:05:20.371Z,11.70
2023-05-23T02:07:52.230Z,13.60
2023-05-23T02:10:24.785Z,18.20
2023-05-23T02:12:56.927Z,17.00
2023-05-23T02:15:29.420Z,12.00
2023-05-23T02:18:02.427Z,18.30
2023-05-23T02:20:34.430Z,16.10
2023-05-23T02:23:06.366Z,14.40
2023-05-23T02:25:38.175Z,14.00
2023-05-23T02:28:11.942Z,14.90
2023-05-23T02:30:43.852Z,12.70
2023-05-23T02:33:16.876Z,16.20
2023-05-23T02:35:51.059Z,16.70
2023-05-23T02:38:22.935Z,13.90
2023-05-23T02:40:57.122Z,14.10
2023-05-23T02:43:29.071Z,19.40
2023-05-23T02:46:01.093Z,18.40
2023-05-23T02:48:33.168Z,14.20
2023-05-23T02:51:05.396Z,16.40
2023-05-23T02:53:37.425Z,14.30
2023-05-23T02:56:10.035Z,14.90
2023-05-23T02:58:41.970Z,13.80
2023-05-23T03:01:13.982Z,14.50
2023-05-23T03:03:46.088Z,14.50
2023-05-23T03:06:18.039Z,13.90
2023-05-23T03:08:50.780Z,15.50
2023-05-23T03:11:22.803Z,17.80
2023-05-23T03:13:54.981Z,13.00
2023-05-23T03:16:27.078Z,11.70
2023-05-23T03:18:59.148Z,16.00
2023-05-23T03:21:31.711Z,17.90
2023-05-23T03:24:03.983Z,14.30
2023-05-23T03:26:36.896Z,13.70
2023-05-23T03:29:11.132Z,14.40
2023-05-23T03:31:43.210Z,12.50
2023-05-23T03:34:15.512Z,15.80
2023-05-23T03:36:47.270Z,12.40
2023-05-23T03:39:19.158Z,12.80
2023-05-23T03:41:50.976Z,12.60
2023-05-23T03:44:23.090Z,10.10
2023-05-23T03:46:55.003Z,11.50
2023-05-23T03:49:27.059Z,15.50
2023-05-23T03:51:59.079Z,10.50
2023-05-23T03:54:31.195Z,11.60
2023-05-23T03:57:03.199Z,9.20
2023-05-23T03:59:35.232Z,9.60
2023-05-23T04:02:07.499Z,10.30
2023-05-23T04:04:39.870Z,11.20
2023-05-23T04:07:11.834Z,9.20
2023-05-23T04:09:43.810Z,11.00
2023-05-23T04:12:15.631Z,12.00
2023-05-23T04:14:48.758Z,9.40
2023-05-23T04:17:21.335Z,11.90
2023-05-23T04:19:53.720Z,8.80
2023-05-23T04:22:25.839Z,9.50
2023-05-23T04:24:57.803Z,8.40
2023-05-23T04:27:29.963Z,9.90
2023-05-23T04:30:01.858Z,8.90
2023-05-23T04:32:34.168Z,10.50
2023-05-23T04:35:06.695Z,7.90
2023-05-23T04:37:39.854Z,10.40
2023-05-23T04:40:13.695Z,9.00
2023-05-23T04:42:46.441Z,8.50
2023-05-23T04:45:19.543Z,7.70
2023-05-23T04:47:51.410Z,10.40
2023-05-23T04:50:24.284Z,8.70
2023-05-23T04:52:56.722Z,8.30
2023-05-23T04:55:29.352Z,14.00
2023-05-23T04:58:01.683Z,17.60
2023-05-23T05:00:33.611Z,13.60
2023-05-23T05:03:05.741Z,13.40
2023-05-23T05:05:37.813Z,8.20
2023-05-23T05:08:09.631Z,9.70
2023-05-23T05:10:43.221Z,10.70
2023-05-23T05:13:14.995Z,10.60
2023-05-23T05:15:47.938Z,7.70
2023-05-23T05:18:19.770Z,12.60
2023-05-23T05:20:51.913Z,7.70
2023-05-23T05:23:28.998Z,12.50
2023-05-23T05:26:01.794Z,9.90
2023-05-23T05:28:33.826Z,12.50
2023-05-23T05:31:06.052Z,19.80
2023-05-23T05:33:37.992Z,15.10
2023-05-23T05:36:10.605Z,15.10
2023-05-23T05:38:42.397Z,9.90
2023-05-23T05:41:14.249Z,9.70
2023-05-23T05:43:46.148Z,31.20
2023-05-23T05:46:18.234Z,22.80
2023-05-23T05:48:50.112Z,20.20
2023-05-23T05:51:22.195Z,17.40
2023-05-23T05:53:54.058Z,12.00
2023-05-23T05:56:26.389Z,28.30
2023-05-23T05:58:58.562Z,10.00
2023-05-23T06:01:31.004Z,13.30
2023-05-23T06:04:03.304Z,12.60
2023-05-23T06:06:35.623Z,12.80
2023-05-23T06:09:07.504Z,9.30
2023-05-23T06:11:41.137Z,11.10
2023-05-23T06:14:13.237Z,8.10
2023-05-23T06:16:45.813Z,9.40
2023-05-23T06:19:17.775Z,10.20
2023-05-23T06:21:50.156Z,12.80
2023-05-23T06:24:22.013Z,14.50
2023-05-23T06:26:54.029Z,14.90
2023-05-23T06:29:26.099Z,6.80
2023-05-23T06:31:57.997Z,11.10
2023-05-23T06:34:29.999Z,10.30
2023-05-23T06:37:02.283Z,7.70
2023-05-23T06:39:34.122Z,8.20
2023-05-23T06:42:06.473Z,6.70
2023-05-23T06:44:38.427Z,9.00
2023-05-23T06:47:10.618Z,13.00
2023-05-23T06:49:43.614Z,7.60
2023-05-23T06:52:15.681Z,17.30
2023-05-23T06:54:47.581Z,12.70
2023-05-23T06:57:19.500Z,11.90
2023-05-23T06:59:51.262Z,9.00
2023-05-23T07:02:23.257Z,5.70
2023-05-23T07:04:55.203Z,8.50
2023-05-23T07:07:27.349Z,13.20
2023-05-23T07:09:59.629Z,7.50
2023-05-23T07:12:34.118Z,9.50
2023-05-23T07:15:08.296Z,9.50
2023-05-23T07:17:40.209Z,6.80
2023-05-23T07:20:13.239Z,6.00
2023-05-23T07:22:45.701Z,7.20
2023-05-23T07:25:17.566Z,8.10
2023-05-23T07:27:49.763Z,5.70
2023-05-23T07:30:22.900Z,6.20
2023-05-23T07:32:55.573Z,11.70
2023-05-23T07:35:28.155Z,10.20
2023-05-23T07:38:01.012Z,12.60
2023-05-23T07:40:33.309Z,6.00
2023-05-23T07:43:05.249Z,7.60
2023-05-23T07:45:37.309Z,12.80
2023-05-23T07:48:09.781Z,17.00
2023-05-23T07:50:42.788Z,13.10
2023-05-23T07:53:14.788Z,6.10
2023-05-23T07:55:46.825Z,3.80
2023-05-23T07:58:18.955Z,5.00
2023-05-23T08:00:52.730Z,7.50
2023-05-23T08:03:25.563Z,6.00
2023-05-23T08:05:57.655Z,6.40
2023-05-23T08:08:29.941Z,4.40
2023-05-23T08:11:01.894Z,4.30
2023-05-23T08:13:34.667Z,4.60
2023-05-23T08:16:06.606Z,9.90
2023-05-23T08:18:38.611Z,4.60
2023-05-23T08:21:10.833Z,6.40
2023-05-23T08:23:42.686Z,5.30
2023-05-23T08:26:14.616Z,5.40
2023-05-23T08:28:46.369Z,5.50
2023-05-23T08:31:18.428Z,4.70
2023-05-23T08:33:50.308Z,3.30
2023-05-23T08:36:22.551Z,2.80
2023-05-23T08:38:54.689Z,6.50
2023-05-23T08:41:28.279Z,4.30
2023-05-23T08:46:30.997Z,3.50
2023-05-23T08:49:06.138Z,3.00
2023-05-23T08:51:39.344Z,5.30
2023-05-23T08:54:13.393Z,3.40
2023-05-23T08:56:47.793Z,4.50
2023-05-23T08:59:22.511Z,3.50
2023-05-23T09:01:54.873Z,3.20
2023-05-23T09:04:29.408Z,2.40
2023-05-23T09:07:01.966Z,3.00
2023-05-23T09:09:34.391Z,6.20
2023-05-23T09:12:06.947Z,8.60
2023-05-23T09:14:47.230Z,2.60
2023-05-23T09:17:21.060Z,2.10
2023-05-23T09:19:53.328Z,3.70
2023-05-23T09:22:28.436Z,9.00
2023-05-23T09:25:00.618Z,3.80
2023-05-23T09:27:32.767Z,2.30
2023-05-23T09:30:13.026Z,3.60
2023-05-23T09:32:46.540Z,3.60
2023-05-23T09:37:49.207Z,3.30
2023-05-23T09:40:21.250Z,6.40
2023-05-23T09:42:53.688Z,7.40
2023-05-23T09:45:32.704Z,3.60
2023-05-23T09:48:04.557Z,2.60
2023-05-23T09:50:36.606Z,5.80
2023-05-23T09:53:08.736Z,4.80
2023-05-23T09:55:41.506Z,2.20
2023-05-23T09:58:13.855Z,4.50
2023-05-23T10:00:46.665Z,2.60
2023-05-23T10:03:19.415Z,3.30
2023-05-23T10:05:52.943Z,5.00
2023-05-23T10:08:30.057Z,3.50
2023-05-23T10:11:50.737Z,7.20
2023-05-23T10:14:22.591Z,2.30
2023-05-23T10:16:59.993Z,6.30
2023-05-23T10:19:39.047Z,2.80
2023-05-23T10:22:13.611Z,3.40
2023-05-23T10:24:47.583Z,3.30
2023-05-23T10:27:19.993Z,2.40
2023-05-23T10:29:52.446Z,2.40
2023-05-23T10:32:24.601Z,4.70
2023-05-23T10:35:01.141Z,6.80
2023-05-23T10:37:36.916Z,11.10
2023-05-23T10:40:17.880Z,4.70
2023-05-23T10:42:53.536Z,4.20
2023-05-23T10:45:26.200Z,5.40
2023-05-23T10:47:58.182Z,6.00
2023-05-23T10:50:37.427Z,3.50
2023-05-23T10:53:12.228Z,5.60
2023-05-23T10:55:44.056Z,3.80
2023-05-23T10:58:20.551Z,4.30
2023-05-23T11:01:01.156Z,5.60
2023-05-23T11:03:38.036Z,3.50
2023-05-23T11:06:11.045Z,5.50
2023-05-23T11:08:48.778Z,3.30
2023-05-23T11:11:23.002Z,4.30
2023-05-23T11:14:00.676Z,2.80
2023-05-23T11:16:34.167Z,3.20
2023-05-23T11:22:02.612Z,4.00
2023-05-23T11:24:54.053Z,4.60
2023-05-23T11:27:30.760Z,2.90
2023-05-23T11:30:05.391Z,4.00
2023-05-23T11:32:38.396Z,5.70
2023-05-23T11:35:12.301Z,2.40
2023-05-23T11:37:44.386Z,2.70
2023-05-23T11:40:31.655Z,5.00
2023-05-23T11:43:05.007Z,7.00
2023-05-23T11:45:38.254Z,4.00
2023-05-23T11:50:48.661Z,9.50
2023-05-23T11:53:22.066Z,5.20
2023-05-23T11:55:55.612Z,4.30
2023-05-23T12:01:04.110Z,4.00
2023-05-23T12:03:38.720Z,4.30
2023-05-23T12:06:13.423Z,5.20
2023-05-23T12:08:46.399Z,4.90
2023-05-23T12:11:19.074Z,7.60
2023-05-23T12:13:55.153Z,5.60
2023-05-23T12:16:27.534Z,4.30
2023-05-23T12:19:00.041Z,7.60
2023-05-23T12:21:43.602Z,3.10
2023-05-23T12:24:18.580Z,11.20
2023-05-23T12:26:51.874Z,5.20
2023-05-23T12:31:55.523Z,6.90
2023-05-23T12:34:27.736Z,8.90
2023-05-23T12:37:14.881Z,3.10
2023-05-23T12:39:51.261Z,7.30
2023-05-23T12:42:23.258Z,2.90
2023-05-23T12:44:56.846Z,3.40
2023-05-23T12:47:29.039Z,4.80
2023-05-23T12:50:01.306Z,4.30
2023-05-23T12:52:33.413Z,5.50
2023-05-23T12:55:05.601Z,4.40
2023-05-23T12:57:38.087Z,3.30
2023-05-23T13:00:12.682Z,5.70
2023-05-23T13:02:44.882Z,5.00
2023-05-23T13:05:17.145Z,4.00
2023-05-23T13:07:49.310Z,5.10
2023-05-23T13:10:21.153Z,6.00
2023-05-23T13:12:53.765Z,5.70
2023-05-23T13:15:26.165Z,4.30
2023-05-23T13:17:58.291Z,4.40
2023-05-23T13:20:30.497Z,4.90
2023-05-23T13:23:02.704Z,3.20
2023-05-23T13:25:34.565Z,3.50
2023-05-23T13:28:06.688Z,6.10
2023-05-23T13:30:38.553Z,6.10
2023-05-23T13:33:10.780Z,3.40
2023-05-23T13:35:42.822Z,9.60
2023-05-23T13:38:15.097Z,4.40
2023-05-23T13:40:48.704Z,3.30
2023-05-23T13:43:22.139Z,4.20
2023-05-23T13:45:54.067Z,8.70
2023-05-23T13:48:26.461Z,4.20
2023-05-23T13:50:59.192Z,4.40
2023-05-23T13:53:31.803Z,3.20
2023-05-23T13:56:04.081Z,7.00
2023-05-23T13:58:35.958Z,6.00
2023-05-23T14:01:07.867Z,4.80
2023-05-23T14:03:40.196Z,4.90
2023-05-23T14:06:12.131Z,4.30
2023-05-23T14:08:44.176Z,3.20
2023-05-23T14:11:16.017Z,5.80
2023-05-23T14:13:48.103Z,11.30
2023-05-23T14:16:20.186Z,7.60
2023-05-23T14:18:53.022Z,3.20
2023-05-23T14:21:25.425Z,4.20
2023-05-23T14:23:57.298Z,6.30
2023-05-23T14:26:29.558Z,4.10
2023-05-23T14:29:01.686Z,5.80
2023-05-23T14:31:33.665Z,9.10
2023-05-23T14:34:06.389Z,3.40
2023-05-23T14:36:38.336Z,4.90
2023-05-23T14:39:10.889Z,5.40
2023-05-23T14:41:42.770Z,4.70
2023-05-23T14:44:15.242Z,8.40
2023-05-23T14:46:50.525Z,3.80
2023-05-23T14:49:23.116Z,7.90
2023-05-23T14:51:56.557Z,4.20
2023-05-23T14:54:28.567Z,3.40
2023-05-23T14:57:00.661Z,3.30
2023-05-23T14:59:32.691Z,4.10
2023-05-23T15:02:06.544Z,7.10
2023-05-23T15:04:40.569Z,3.90
2023-05-23T15:07:13.862Z,6.80
2023-05-23T15:12:16.747Z,7.20
2023-05-23T15:14:48.693Z,3.80
2023-05-23T15:17:24.976Z,5.50
2023-05-23T15:19:58.550Z,4.60
2023-05-23T15:25:08.310Z,5.70
2023-05-23T15:27:40.260Z,7.90
2023-05-23T15:30:13.466Z,5.00
2023-05-23T15:32:45.482Z,4.20
2023-05-23T15:35:19.591Z,8.50
2023-05-23T15:37:52.370Z,3.80
2023-05-23T15:40:24.369Z,8.70
2023-05-23T15:42:56.698Z,7.80
2023-05-23T15:45:29.053Z,6.40
2023-05-23T15:48:01.162Z,8.40
2023-05-23T15:50:33.154Z,4.30
2023-05-23T15:53:04.985Z,4.90
2023-05-23T15:55:39.752Z,6.40
2023-05-23T15:58:13.208Z,6.60
2023-05-23T16:00:45.286Z,5.80
2023-05-23T16:03:17.465Z,11.00
2023-05-23T16:05:49.471Z,4.70
2023-05-23T16:08:21.555Z,5.80
2023-05-23T16:10:56.601Z,8.30
2023-05-23T16:13:28.571Z,7.50
2023-05-23T16:16:00.600Z,4.40
2023-05-23T16:18:32.765Z,4.80
2023-05-23T16:21:05.825Z,4.20
2023-05-23T16:23:37.944Z,5.20
2023-05-23T16:26:10.249Z,13.30
2023-05-23T16:28:43.954Z,5.50
2023-05-23T16:31:17.845Z,5.90
2023-05-23T16:33:49.660Z,6.80
2023-05-23T16:36:21.769Z,8.20
2023-05-23T16:38:55.399Z,7.30
2023-05-23T16:41:28.234Z,8.40
2023-05-23T16:44:00.247Z,7.70
2023-05-23T16:46:32.635Z,5.30
2023-05-23T16:49:04.615Z,11.30
2023-05-23T16:51:36.984Z,8.70
2023-05-23T16:54:09.097Z,5.10
2023-05-23T16:56:41.462Z,4.90
2023-05-23T16:59:13.608Z,5.20
2023-05-23T17:01:45.640Z,4.70
2023-05-23T17:04:20.273Z,5.70
2023-05-23T17:06:53.145Z,8.60
2023-05-23T17:09:25.279Z,8.20
2023-05-23T17:11:57.230Z,8.10
2023-05-23T17:14:29.091Z,6.40
2023-05-23T17:17:03.476Z,4.60
2023-05-23T17:19:36.276Z,6.10
2023-05-23T17:22:08.862Z,7.00
2023-05-23T17:24:40.781Z,4.90
2023-05-23T17:27:12.870Z,5.60
2023-05-23T17:29:45.005Z,5.80
2023-05-23T17:32:17.096Z,7.40
2023-05-23T17:34:48.964Z,10.40
2023-05-23T17:37:21.812Z,11.50
2023-05-23T17:39:56.749Z,5.40
2023-05-23T17:42:29.984Z,4.60
2023-05-23T17:45:02.069Z,7.00
2023-05-23T17:47:34.005Z,5.10
2023-05-23T17:50:07.706Z,6.10
2023-05-23T17:52:40.742Z,6.50
2023-05-23T17:55:14.730Z,11.10
2023-05-23T17:57:47.092Z,7.50
2023-05-23T18:00:20.516Z,7.20
2023-05-23T18:02:53.009Z,6.40
2023-05-23T18:05:25.282Z,9.00
2023-05-23T18:07:57.729Z,6.00
2023-05-23T18:10:30.101Z,9.40
2023-05-23T18:13:02.301Z,10.50
2023-05-23T18:15:34.416Z,5.50
2023-05-23T18:18:06.868Z,12.10
2023-05-23T18:20:39.053Z,7.30
2023-05-23T18:23:12.098Z,6.00
2023-05-23T18:25:44.101Z,7.60
2023-05-23T18:28:16.613Z,6.90
2023-05-23T18:30:48.592Z,13.20
2023-05-23T18:33:20.883Z,8.70
2023-05-23T18:35:53.318Z,8.50
2023-05-23T18:38:25.744Z,7.30
2023-05-23T18:40:58.617Z,6.10
2023-05-23T18:43:31.089Z,7.00
2023-05-23T18:46:03.293Z,7.20
2023-05-23T18:48:36.164Z,9.70
2023-05-23T18:51:08.667Z,7.70
2023-05-23T18:53:42.446Z,8.80
2023-05-23T18:56:15.023Z,11.60
2023-05-23T18:58:49.935Z,15.10
2023-05-23T19:01:22.621Z,12.20
2023-05-23T19:03:54.801Z,9.30
2023-05-23T19:06:27.877Z,13.10
2023-05-23T19:08:59.880Z,10.60
2023-05-23T19:11:31.858Z,8.60
2023-05-23T19:14:04.003Z,10.60
2023-05-23T19:16:36.329Z,10.30
2023-05-23T19:19:08.954Z,14.00
2023-05-23T19:21:41.293Z,10.50
2023-05-23T19:24:13.490Z,10.20
2023-05-23T19:26:45.478Z,11.30
2023-05-23T19:29:17.544Z,7.90
2023-05-23T19:31:49.593Z,8.20
2023-05-23T19:34:21.958Z,14.80
2023-05-23T19:36:53.779Z,10.40
2023-05-23T19:39:25.956Z,8.70
2023-05-23T19:41:58.315Z,9.60
2023-05-23T19:44:30.193Z,8.30
2023-05-23T19:47:02.277Z,10.50
2023-05-23T19:49:34.451Z,8.60
2023-05-23T19:52:06.829Z,22.30
2023-05-23T19:54:38.749Z,15.30
2023-05-23T19:57:10.922Z,39.60
2023-05-23T19:59:43.505Z,22.90
2023-05-23T20:02:15.478Z,18.30
2023-05-23T20:04:48.340Z,14.10
2023-05-23T20:07:20.451Z,11.90
2023-05-23T20:09:52.597Z,8.60
2023-05-23T20:12:24.630Z,8.80
2023-05-23T20:14:57.551Z,10.00
2023-05-23T20:17:30.659Z,8.80
2023-05-23T20:20:04.241Z,14.20
2023-05-23T20:22:36.416Z,10.70
2023-05-23T20:25:10.380Z,12.10
2023-05-23T20:27:42.273Z,8.80
2023-05-23T20:30:16.090Z,9.20
2023-05-23T20:35:19.120Z,9.40
2023-05-23T20:37:51.962Z,15.30
2023-05-23T20:40:25.951Z,9.40
2023-05-23T20:43:01.110Z,8.00
2023-05-23T20:45:33.527Z,7.90
2023-05-23T20:48:05.675Z,12.10
2023-05-23T20:50:38.913Z,17.20
2023-05-23T20:53:10.916Z,11.20
2023-05-23T20:55:43.604Z,9.00
2023-05-23T20:58:16.510Z,11.00
2023-05-23T21:00:48.842Z,10.00
2023-05-23T21:03:21.247Z,13.20
2023-05-23T21:05:53.648Z,8.90
2023-05-23T21:08:25.651Z,12.50
2023-05-23T21:10:58.434Z,13.50
2023-05-23T21:13:30.586Z,8.30
2023-05-23T21:16:02.918Z,8.30
2023-05-23T21:18:34.943Z,8.60
2023-05-23T21:21:07.760Z,10.00
2023-05-23T21:23:39.595Z,9.50
2023-05-23T21:26:11.721Z,12.00
2023-05-23T21:28:43.742Z,9.70
2023-05-23T21:31:18.346Z,11.20
2023-05-23T21:33:51.778Z,10.90
2023-05-23T21:36:23.699Z,7.70
2023-05-23T21:38:55.589Z,8.50
2023-05-23T21:41:27.979Z,11.60
2023-05-23T21:44:00.234Z,13.10
2023-05-23T21:46:32.465Z,11.10
2023-05-23T21:49:04.333Z,11.60
2023-05-23T21:51:36.621Z,10.80
2023-05-23T21:54:08.603Z,12.00
2023-05-23T21:56:40.742Z,8.70
2023-05-23T21:59:12.830Z,12.00
2023-05-23T22:01:45.009Z,9.90
2023-05-23T22:04:19.317Z,8.50
2023-05-23T22:06:52.043Z,9.90
2023-05-23T22:09:23.926Z,8.20
2023-05-23T22:11:56.686Z,12.40
2023-05-23T22:14:28.645Z,8.90
2023-05-23T22:17:02.392Z,10.90
2023-05-23T22:19:34.709Z,8.60
2023-05-23T22:22:08.007Z,8.60
2023-05-23T22:24:40.050Z,8.50
2023-05-23T22:27:12.443Z,8.50
2023-05-23T22:29:44.487Z,8.10
2023-05-23T22:32:16.713Z,9.20
2023-05-23T22:34:48.569Z,13.50
2023-05-23T22:37:20.760Z,8.10
2023-05-23T22:39:52.602Z,9.90
2023-05-23T22:42:24.651Z,9.60
2023-05-23T22:44:57.071Z,7.90
2023-05-23T22:47:29.556Z,14.10
2023-05-23T22:50:01.937Z,9.20
2023-05-23T22:52:34.681Z,11.00
2023-05-23T22:55:08.238Z,8.10
2023-05-23T22:57:40.621Z,12.50
2023-05-23T23:00:14.748Z,9.40
2023-05-23T23:02:47.125Z,10.20
2023-05-23T23:05:19.372Z,10.80
2023-05-23T23:07:51.643Z,9.80
2023-05-23T23:10:23.574Z,8.30
2023-05-23T23:12:55.964Z,7.10
2023-05-23T23:15:30.494Z,14.80
2023-05-23T23:18:02.904Z,7.40
2023-05-23T23:20:34.987Z,13.10
2023-05-23T23:23:07.372Z,10.00
2023-05-23T23:25:40.395Z,10.70
2023-05-23T23:28:12.640Z,7.80
2023-05-23T23:30:44.916Z,15.40
2023-05-23T23:33:17.259Z,8.70
2023-05-23T23:35:51.868Z,7.60
2023-05-23T23:38:24.007Z,11.00
2023-05-23T23:40:55.982Z,9.10
2023-05-23T23:43:28.392Z,10.30
2023-05-23T23:46:00.439Z,9.40
2023-05-23T23:48:32.589Z,11.40
2023-05-23T23:51:04.478Z,8.40
2023-05-23T23:53:36.684Z,9.90
2023-05-23T23:56:08.904Z,8.70
2023-05-23T23:58:41.236Z,10.90
